Arian — V2FM3 — position and weather

sailwx.info

Track history (hours):
 
Tides and Currents Weather Stations Pressure Air Temp Water Temp Dewpoint Dewpoint Depression Visibility Wind Speed Wind Dir Waves Ship Positions

Arian

Last reported at 2017-Oct-11 18:02 UTC. Time now 2017-Oct-19 23:53 UTC.
Position N 15°22' W 061°41'.
Warning: this ship's position is 8 days out of date.

Length 161 m; draft 7.9 m.

Type: Ship (hazmat cat A). MMSI: 305720000.

Date/timePositionNaut miles runAvg speedWind from/ knotsBaromVisibWave heightAir tempDewpointWater temp
2017-Oct-11 18:02N 15°22' W 061°41'017.0
2017-Oct-11 18:00N 15°22' W 061°41'  
2017-Oct-09 08:09N 14°45' W 061°27'210.8
2017-Oct-09 08:00N 14°44' W 061°26'611.3
2017-Oct-09 07:28N 14°38' W 061°24'511.4
2017-Oct-09 07:00N 14°33' W 061°22'1611.4
2017-Oct-09 05:38N 14°19' W 061°15'111.7
2017-Oct-09 05:30N 14°18' W 061°15'611.5
2017-Oct-09 04:59N 14°13' W 061°11'37 1.9
2017-Oct-08 09:22N 13°38' W 060°56'28 0.8
2017-Oct-06 21:20N 14°03' W 060°42'515.6
2017-Oct-06 21:01N 14°07' W 060°46'815.6
2017-Oct-06 20:30N 14°12' W 060°52'815.6
2017-Oct-06 20:00N 14°17' W 060°58'815.5
2017-Oct-06 19:30N 14°23' W 061°03'816.3
2017-Oct-06 19:00N 14°30' W 061°08'611.9
2017-Oct-06 18:30N 14°35' W 061°05'2 3.6
2017-Oct-06 18:01N 14°35' W 061°03'0 0.0
2017-Oct-06 17:28N 14°35' W 061°03'0 0.0
2017-Oct-06 16:58N 14°35' W 061°03'0 0.0
2017-Oct-06 16:28N 14°35' W 061°03'0 0.0
2017-Oct-06 15:58N 14°35' W 061°03'0 0.0
2017-Oct-06 15:28N 14°35' W 061°03'0 0.0
2017-Oct-06 14:58N 14°35' W 061°03'0 0.0
2017-Oct-06 14:28N 14°35' W 061°03'0 0.0
2017-Oct-06 13:58N 14°35' W 061°03'0 0.0
2017-Oct-06 13:28N 14°35' W 061°03'0 0.0
2017-Oct-06 12:58N 14°35' W 061°03'0 0.0
2017-Oct-06 12:28N 14°35' W 061°03'0 0.0
2017-Oct-06 11:58N 14°35' W 061°03'0 0.0
2017-Oct-06 11:28N 14°35' W 061°03'0 0.0
2017-Oct-06 10:58N 14°35' W 061°03'0 0.0
2017-Oct-06 10:31N 14°35' W 061°03'2 4.6
2017-Oct-06 10:01N 14°36' W 061°05'4 8.7
2017-Oct-06 09:31N 14°35' W 061°10'5 9.5
2017-Oct-06 09:00N 14°35' W 061°15'510.9
2017-Oct-06 08:31N 14°36' W 061°20'3 0.2
2017-Oct-05 17:35N 14°34' W 061°23'0 1.0
2017-Oct-05 17:31N 14°34' W 061°23'7 3.1
2017-Oct-05 15:13N 14°38' W 061°18'210.7
2017-Oct-05 15:00N 14°36' W 061°16'714.9
2017-Oct-05 14:30N 14°29' W 061°15'714.6
2017-Oct-05 14:00N 14°22' W 061°13'913.6
2017-Oct-05 13:23N 14°13' W 061°13'  
Track history (hours):
 
Tides and Currents Weather Stations Pressure Air Temp Water Temp Dewpoint Dewpoint Depression Visibility Wind Speed Wind Dir Waves Ship Positions

Arian

Last reported at 2017-Oct-11 18:02 UTC. Time now 2017-Oct-19 23:53 UTC.
Position N 15°22' W 061°41'.
Warning: this ship's position is 8 days out of date.

Length 161 m; draft 7.9 m.

Type: Ship (hazmat cat A). MMSI: 305720000.

Date/timePositionNaut miles runAvg speedWind from/ knotsBaromVisibWave heightAir tempDewpointWater temp
2017-Oct-11 18:02N 15°22' W 061°41'017.0
2017-Oct-11 18:00N 15°22' W 061°41'  
2017-Oct-09 08:09N 14°45' W 061°27'210.8
2017-Oct-09 08:00N 14°44' W 061°26'611.3
2017-Oct-09 07:28N 14°38' W 061°24'511.4
2017-Oct-09 07:00N 14°33' W 061°22'1611.4
2017-Oct-09 05:38N 14°19' W 061°15'111.7
2017-Oct-09 05:30N 14°18' W 061°15'611.5
2017-Oct-09 04:59N 14°13' W 061°11'37 1.9
2017-Oct-08 09:22N 13°38' W 060°56'28 0.8
2017-Oct-06 21:20N 14°03' W 060°42'515.6
2017-Oct-06 21:01N 14°07' W 060°46'815.6
2017-Oct-06 20:30N 14°12' W 060°52'815.6
2017-Oct-06 20:00N 14°17' W 060°58'815.5
2017-Oct-06 19:30N 14°23' W 061°03'816.3
2017-Oct-06 19:00N 14°30' W 061°08'611.9
2017-Oct-06 18:30N 14°35' W 061°05'2 3.6
2017-Oct-06 18:01N 14°35' W 061°03'0 0.0
2017-Oct-06 17:28N 14°35' W 061°03'0 0.0
2017-Oct-06 16:58N 14°35' W 061°03'0 0.0
2017-Oct-06 16:28N 14°35' W 061°03'0 0.0
2017-Oct-06 15:58N 14°35' W 061°03'0 0.0
2017-Oct-06 15:28N 14°35' W 061°03'0 0.0
2017-Oct-06 14:58N 14°35' W 061°03'0 0.0
2017-Oct-06 14:28N 14°35' W 061°03'0 0.0
2017-Oct-06 13:58N 14°35' W 061°03'0 0.0
2017-Oct-06 13:28N 14°35' W 061°03'0 0.0
2017-Oct-06 12:58N 14°35' W 061°03'0 0.0
2017-Oct-06 12:28N 14°35' W 061°03'0 0.0
2017-Oct-06 11:58N 14°35' W 061°03'0 0.0
2017-Oct-06 11:28N 14°35' W 061°03'0 0.0
2017-Oct-06 10:58N 14°35' W 061°03'0 0.0
2017-Oct-06 10:31N 14°35' W 061°03'2 4.6
2017-Oct-06 10:01N 14°36' W 061°05'4 8.7
2017-Oct-06 09:31N 14°35' W 061°10'5 9.5
2017-Oct-06 09:00N 14°35' W 061°15'510.9
2017-Oct-06 08:31N 14°36' W 061°20'3 0.2
2017-Oct-05 17:35N 14°34' W 061°23'0 1.0
2017-Oct-05 17:31N 14°34' W 061°23'7 3.1
2017-Oct-05 15:13N 14°38' W 061°18'210.7
2017-Oct-05 15:00N 14°36' W 061°16'714.9
2017-Oct-05 14:30N 14°29' W 061°15'714.6
2017-Oct-05 14:00N 14°22' W 061°13'913.6
2017-Oct-05 13:23N 14°13' W 061°13'  

Dump ship's entire track history